createdAt,value
2023-05-07T00:02:47.635Z,100285.19
2023-05-07T00:07:49.099Z,100289.47
2023-05-07T00:12:50.594Z,100280.97
2023-05-07T00:17:51.981Z,100294.78
2023-05-07T00:22:53.422Z,100274.81
2023-05-07T00:27:54.799Z,100280.25
2023-05-07T00:32:56.459Z,100282.38
2023-05-07T00:37:58.265Z,100278.25
2023-05-07T00:43:00.755Z,100285.81
2023-05-07T00:48:03.598Z,100274.91
2023-05-07T00:53:05.171Z,100264.84
2023-05-07T00:58:07.133Z,100258.09
2023-05-07T01:03:08.514Z,100252.66
2023-05-07T01:08:11.503Z,100253.34
2023-05-07T01:13:14.204Z,100261.75
2023-05-07T01:18:16.201Z,100262.34
2023-05-07T01:23:18.860Z,100267.56
2023-05-07T01:28:20.390Z,100268.25
2023-05-07T01:33:23.336Z,100266.66
2023-05-07T01:38:25.005Z,100262.09
2023-05-07T01:43:26.451Z,100270.53
2023-05-07T01:48:28.320Z,100259.63
2023-05-07T01:53:29.719Z,100259.03
2023-05-07T01:58:31.081Z,100259.38
2023-05-07T02:03:32.494Z,100253.50
2023-05-07T02:08:33.931Z,100261.06
2023-05-07T02:13:35.731Z,100260.59
2023-05-07T02:18:37.122Z,100267.53
2023-05-07T02:23:38.526Z,100267.41
2023-05-07T02:28:39.918Z,100252.75
2023-05-07T02:33:41.332Z,100265.31
2023-05-07T02:38:42.719Z,100271.19
2023-05-07T02:43:44.048Z,100271.19
2023-05-07T02:48:45.398Z,100268.34
2023-05-07T02:53:46.939Z,100265.25
2023-05-07T02:58:48.335Z,100276.56
2023-05-07T03:03:49.757Z,100273.13
2023-05-07T03:08:51.157Z,100268.28
2023-05-07T03:13:52.526Z,100262.84
2023-05-07T03:18:53.907Z,100257.38
2023-05-07T03:23:55.446Z,100258.22
2023-05-07T03:28:56.770Z,100256.19
2023-05-07T03:33:58.709Z,100258.06
2023-05-07T03:39:00.146Z,100260.16
2023-05-07T03:44:01.504Z,100264.56
2023-05-07T03:49:02.830Z,100251.19
2023-05-07T03:54:04.206Z,100248.25
2023-05-07T03:59:07.701Z,100252.69
2023-05-07T04:04:09.106Z,100252.69
2023-05-07T04:09:10.517Z,100256.34
2023-05-07T04:14:11.884Z,100251.44
2023-05-07T04:19:13.234Z,100267.13
2023-05-07T04:24:14.965Z,100262.91
2023-05-07T04:29:16.318Z,100275.06
2023-05-07T04:34:17.695Z,100291.88
2023-05-07T04:39:19.063Z,100298.03
2023-05-07T04:44:20.627Z,100312.81
2023-05-07T04:49:21.997Z,100303.50
2023-05-07T04:54:23.430Z,100309.31
2023-05-07T04:59:24.866Z,100296.91
2023-05-07T05:04:26.648Z,100304.22
2023-05-07T05:09:27.986Z,100316.84
2023-05-07T05:14:30.458Z,100316.78
2023-05-07T05:19:31.796Z,100323.81
2023-05-07T05:24:33.159Z,100330.03
2023-05-07T05:29:34.465Z,100330.94
2023-05-07T05:34:35.942Z,100336.75
2023-05-07T05:39:37.451Z,100332.19
2023-05-07T05:44:38.853Z,100329.31
2023-05-07T05:49:40.276Z,100339.63
2023-05-07T05:54:41.630Z,100338.41
2023-05-07T05:59:45.139Z,100340.38
2023-05-07T06:04:46.597Z,100332.50
2023-05-07T06:09:48.085Z,100335.47
2023-05-07T06:14:49.531Z,100338.47
2023-05-07T06:19:50.867Z,100338.34
2023-05-07T06:24:52.248Z,100338.94
2023-05-07T06:29:53.628Z,100343.81
2023-05-07T06:34:55.035Z,100338.50
2023-05-07T06:39:57.573Z,100352.88
2023-05-07T06:45:00.711Z,100358.44
2023-05-07T06:50:02.154Z,100349.31
2023-05-07T06:55:03.678Z,100353.94
2023-05-07T07:00:08.052Z,100356.44
2023-05-07T07:05:09.985Z,100358.94
2023-05-07T07:10:11.510Z,100344.97
2023-05-07T07:15:14.567Z,100349.34
2023-05-07T07:20:16.154Z,100355.69
2023-05-07T07:25:17.970Z,100357.00
2023-05-07T07:30:19.369Z,100364.13
2023-05-07T07:35:20.749Z,100368.56
2023-05-07T07:40:22.315Z,100372.81
2023-05-07T07:45:24.108Z,100373.88
2023-05-07T07:50:40.451Z,100367.72
2023-05-07T07:55:45.864Z,100365.22
2023-05-07T08:00:48.162Z,100372.44
2023-05-07T08:05:51.985Z,100366.50
2023-05-07T08:10:53.395Z,100369.56
2023-05-07T08:15:54.765Z,100360.75
2023-05-07T08:20:56.186Z,100368.09
2023-05-07T08:25:57.550Z,100362.78
2023-05-07T08:31:01.508Z,100361.16
2023-05-07T08:36:03.034Z,100368.91
2023-05-07T08:41:04.446Z,100357.75
2023-05-07T08:46:08.727Z,100353.13
2023-05-07T08:51:16.877Z,100365.66
2023-05-07T08:56:20.342Z,100363.88
2023-05-07T09:01:23.049Z,100357.69
2023-05-07T09:06:24.470Z,100360.53
2023-05-07T09:11:25.962Z,100358.13
2023-05-07T09:16:31.179Z,100360.34
2023-05-07T09:21:32.656Z,100362.31
2023-05-07T09:26:35.596Z,100363.22
2023-05-07T09:31:40.305Z,100353.31
2023-05-07T09:36:41.726Z,100359.09
2023-05-07T09:41:47.359Z,100356.59
2023-05-07T09:46:54.839Z,100351.63
2023-05-07T09:51:57.552Z,100346.69
2023-05-07T09:56:59.549Z,100346.69
2023-05-07T10:02:04.697Z,100351.66
2023-05-07T10:07:06.777Z,100353.25
2023-05-07T10:12:08.425Z,100347.97
2023-05-07T10:17:12.788Z,100339.38
2023-05-07T10:22:17.137Z,100339.56
2023-05-07T10:27:19.369Z,100342.47
2023-05-07T10:32:30.575Z,100342.47
2023-05-07T10:37:32.420Z,100345.16
2023-05-07T10:42:33.868Z,100338.81
2023-05-07T10:47:35.229Z,100347.13
2023-05-07T10:52:36.878Z,100342.09
2023-05-07T10:57:38.331Z,100344.41
2023-05-07T11:03:01.557Z,100328.97
2023-05-07T11:08:04.832Z,100328.72
2023-05-07T11:13:06.505Z,100327.97
2023-05-07T11:18:08.086Z,100321.72
2023-05-07T11:23:09.547Z,100326.47
2023-05-07T11:28:11.454Z,100326.09
2023-05-07T11:33:13.062Z,100323.84
2023-05-07T11:38:14.794Z,100329.47
2023-05-07T11:43:16.142Z,100315.41
2023-05-07T11:48:17.989Z,100315.13
2023-05-07T11:53:20.963Z,100307.13
2023-05-07T11:58:23.922Z,100302.31
2023-05-07T12:03:25.344Z,100303.03
2023-05-07T12:08:26.845Z,100299.69
2023-05-07T12:13:28.289Z,100293.75
2023-05-07T12:18:30.132Z,100286.56
2023-05-07T12:23:31.799Z,100294.78
2023-05-07T12:28:39.108Z,100289.09
2023-05-07T12:33:40.942Z,100276.06
2023-05-07T12:38:42.295Z,100281.66
2023-05-07T12:43:46.972Z,100276.56
2023-05-07T12:48:49.206Z,100270.91
2023-05-07T12:53:50.914Z,100274.88
2023-05-07T12:58:52.324Z,100268.22
2023-05-07T13:03:53.810Z,100264.44
2023-05-07T13:08:55.316Z,100266.56
2023-05-07T13:13:56.649Z,100263.97
2023-05-07T13:18:58.014Z,100258.50
2023-05-07T13:23:59.685Z,100256.88
2023-05-07T13:29:01.354Z,100262.22
2023-05-07T13:34:02.757Z,100260.75
2023-05-07T13:39:04.526Z,100253.16
2023-05-07T13:44:06.122Z,100242.38
2023-05-07T13:49:07.499Z,100248.63
2023-05-07T13:54:08.952Z,100243.56
2023-05-07T13:59:10.619Z,100244.44
2023-05-07T14:04:12.126Z,100232.84
2023-05-07T14:09:14.288Z,100228.56
2023-05-07T14:14:15.845Z,100232.53
2023-05-07T14:19:17.266Z,100229.25
2023-05-07T14:24:27.420Z,100217.09
2023-05-07T14:29:37.136Z,100220.31
2023-05-07T14:34:38.526Z,100227.75
2023-05-07T14:39:40.068Z,100223.47
2023-05-07T14:44:42.426Z,100218.34
2023-05-07T14:49:43.745Z,100226.75
2023-05-07T14:54:45.336Z,100228.09
2023-05-07T14:59:47.969Z,100220.78
2023-05-07T15:04:49.511Z,100230.88
2023-05-07T15:09:51.954Z,100239.06
2023-05-07T15:14:53.284Z,100245.69
2023-05-07T15:19:54.712Z,100236.81
2023-05-07T15:24:57.645Z,100250.66
2023-05-07T15:29:59.027Z,100256.53
2023-05-07T15:35:00.362Z,100256.78
2023-05-07T15:40:03.381Z,100262.31
2023-05-07T15:45:06.278Z,100256.22
2023-05-07T15:50:08.239Z,100259.72
2023-05-07T15:55:09.987Z,100265.88
2023-05-07T16:00:12.504Z,100259.63
2023-05-07T16:05:14.588Z,100260.69
2023-05-07T16:10:16.202Z,100268.50
2023-05-07T16:15:17.699Z,100259.63
2023-05-07T16:20:19.939Z,100261.81
2023-05-07T16:25:21.337Z,100254.53
2023-05-07T16:30:22.758Z,100252.81
2023-05-07T16:35:24.189Z,100258.47
2023-05-07T16:40:25.628Z,100254.13
2023-05-07T16:45:27.142Z,100262.53
2023-05-07T16:50:28.835Z,100264.84
2023-05-07T16:55:36.186Z,100267.41
2023-05-07T17:00:50.231Z,100272.75
2023-05-07T17:05:52.709Z,100282.50
2023-05-07T17:10:54.314Z,100281.47
2023-05-07T17:15:55.684Z,100294.50
2023-05-07T17:20:57.111Z,100301.16
2023-05-07T17:25:58.538Z,100340.88
2023-05-07T17:31:00.054Z,100362.44
2023-05-07T17:36:03.066Z,100376.72
2023-05-07T17:41:04.441Z,100402.03
2023-05-07T17:46:05.829Z,100402.38
2023-05-07T17:51:07.227Z,100410.59
2023-05-07T17:56:08.620Z,100426.66
2023-05-07T18:01:09.976Z,100430.47
2023-05-07T18:06:11.428Z,100436.41
2023-05-07T18:11:12.902Z,100438.38
2023-05-07T18:16:14.967Z,100435.81
2023-05-07T18:21:18.769Z,100445.31
2023-05-07T18:26:21.320Z,100451.88
2023-05-07T18:31:22.787Z,100463.16
2023-05-07T18:36:25.008Z,100475.13
2023-05-07T18:41:26.480Z,100481.06
2023-05-07T18:46:29.464Z,100485.22
2023-05-07T18:51:30.932Z,100489.97
2023-05-07T18:56:32.318Z,100495.75
2023-05-07T19:01:33.681Z,100496.19
2023-05-07T19:06:35.159Z,100504.75
2023-05-07T19:11:36.552Z,100506.75
2023-05-07T19:16:38.078Z,100511.94
2023-05-07T19:21:39.490Z,100518.66
2023-05-07T19:26:41.077Z,100517.84
2023-05-07T19:31:42.429Z,100521.88
2023-05-07T19:36:43.846Z,100533.00
2023-05-07T19:41:45.192Z,100541.56
2023-05-07T19:46:47.687Z,100546.75
2023-05-07T19:51:49.069Z,100548.59
2023-05-07T19:56:50.474Z,100553.84
2023-05-07T20:01:51.926Z,100552.63
2023-05-07T20:06:53.555Z,100564.19
2023-05-07T20:11:55.260Z,100569.25
2023-05-07T20:16:56.600Z,100574.50
2023-05-07T20:21:58.044Z,100579.97
2023-05-07T20:26:59.382Z,100583.38
2023-05-07T20:32:01.076Z,100584.94
2023-05-07T20:37:02.857Z,100595.59
2023-05-07T20:42:04.273Z,100598.44
2023-05-07T20:47:05.633Z,100612.94
2023-05-07T20:52:07.181Z,100611.50
2023-05-07T20:57:08.511Z,100613.19
2023-05-07T21:02:09.880Z,100615.53
2023-05-07T21:07:12.337Z,100625.75
2023-05-07T21:12:13.664Z,100621.97
2023-05-07T21:17:15.038Z,100625.31
2023-05-07T21:22:16.392Z,100631.59
2023-05-07T21:27:17.790Z,100631.06
2023-05-07T21:32:19.200Z,100639.53
2023-05-07T21:37:20.628Z,100644.47
2023-05-07T21:42:23.336Z,100636.81
2023-05-07T21:47:24.988Z,100638.66
2023-05-07T21:52:26.491Z,100643.41
2023-05-07T21:57:27.866Z,100637.03
2023-05-07T22:02:29.313Z,100644.50
2023-05-07T22:07:31.654Z,100649.69
2023-05-07T22:12:33.161Z,100645.16
2023-05-07T22:17:34.531Z,100645.03
2023-05-07T22:22:51.949Z,100645.66
2023-05-07T22:27:53.953Z,100661.38
2023-05-07T22:32:55.572Z,100661.78
2023-05-07T22:37:58.280Z,100665.91
2023-05-07T22:42:59.610Z,100671.56
2023-05-07T22:48:01.046Z,100674.28
2023-05-07T22:53:02.410Z,100681.50
2023-05-07T22:58:03.800Z,100679.19
2023-05-07T23:03:05.273Z,100684.69
2023-05-07T23:08:06.645Z,100681.13
2023-05-07T23:13:13.292Z,100672.56
2023-05-07T23:18:14.805Z,100656.88
2023-05-07T23:23:16.247Z,100663.25
2023-05-07T23:28:17.586Z,100652.25
2023-05-07T23:33:19.411Z,100661.09
2023-05-07T23:38:21.178Z,100652.59
2023-05-07T23:43:23.265Z,100652.44
2023-05-07T23:48:24.599Z,100659.56
2023-05-07T23:53:26.134Z,100661.25
2023-05-07T23:58:27.706Z,100665.25
